Time;durP1;ratioP1;P1;durP2;ratioP2;P2;SDS_P1;SDS_P2;PMS_P1;PMS_P2;Temp;Humidity;BMP_temperature;BMP_pressure;BME280_temperature;BME280_humidity;BME280_pressure;Samples;Min_cycle;Max_cycle;Signal;HPM_P1;HPM_P2
2024/01/26 00:00:38;;;;;;;15.90;1.30;;;;;;;3.65;96.91;100058.92;103817;1286;60573;-31
2024/01/26 00:03:04;;;;;;;12.90;1.80;;;;;;;3.68;96.59;100063.38;103804;1287;60572;-31
2024/01/26 00:05:30;;;;;;;10.10;1.60;;;;;;;3.64;96.89;100062.73;103951;1295;60560;-30
2024/01/26 00:07:55;;;;;;;12.00;1.70;;;;;;;3.63;96.98;100064.05;103870;1286;69499;-31
2024/01/26 00:10:21;;;;;;;11.50;1.90;;;;;;;3.63;96.83;100063.20;103912;1286;60544;-31
2024/01/26 00:12:47;;;;;;;12.20;2.10;;;;;;;3.65;96.94;100059.79;103920;1293;60568;-31
2024/01/26 00:15:13;;;;;;;10.30;1.80;;;;;;;3.65;96.53;100062.78;103956;1298;60552;-33
2024/01/26 00:17:39;;;;;;;8.20;1.50;;;;;;;3.65;96.45;100067.09;103881;1286;60551;-31
2024/01/26 00:20:05;;;;;;;11.00;2.00;;;;;;;3.65;96.38;100065.83;103947;1294;60504;-31
2024/01/26 00:22:31;;;;;;;11.80;1.50;;;;;;;3.65;96.34;100062.83;103963;1285;60573;-31
2024/01/26 00:24:57;;;;;;;;;;;;;;;3.76;95.45;100066.98;103962;1287;60597;-32
2024/01/26 00:27:23;;;;;;;8.60;1.50;;;;;;;3.67;95.45;100061.52;103910;1292;60572;-30
2024/01/26 00:29:48;;;;;;;14.40;1.50;;;;;;;3.73;95.37;100065.48;103926;1284;60504;-31
2024/01/26 00:32:14;;;;;;;10.30;1.80;;;;;;;3.69;95.41;100064.94;103893;1291;59448;-29
2024/01/26 00:34:40;;;;;;;12.00;1.90;;;;;;;3.71;95.22;100062.13;103886;1285;70350;-30
2024/01/26 00:37:06;;;;;;;10.80;1.80;;;;;;;3.73;95.25;100064.06;103928;1286;60453;-30
2024/01/26 00:39:31;;;;;;;12.70;1.70;;;;;;;3.67;95.34;100064.23;103252;1298;1002191;-29
2024/01/26 00:41:57;;;;;;;11.00;1.60;;;;;;;3.66;95.28;100070.11;103912;1285;60608;-29
2024/01/26 00:44:22;;;;;;;12.50;2.00;;;;;;;3.66;94.98;100067.34;104070;1294;60555;-33
2024/01/26 00:46:48;;;;;;;9.40;1.40;;;;;;;3.66;95.10;100070.16;103969;1298;60557;-32
2024/01/26 00:49:14;;;;;;;7.90;1.50;;;;;;;3.66;95.13;100075.14;103741;1299;60578;-32
2024/01/26 00:51:39;;;;;;;7.60;1.50;;;;;;;3.63;95.38;100082.27;103912;1293;60598;-29
2024/01/26 00:54:05;;;;;;;9.10;1.90;;;;;;;3.64;95.44;100087.30;103928;1298;60508;-32
2024/01/26 00:56:31;;;;;;;5.50;1.90;;;;;;;3.64;95.74;100089.09;103928;1281;60604;-33
2024/01/26 00:58:56;;;;;;;16.30;2.70;;;;;;;3.63;95.60;100085.07;98847;1282;1003056;-30
2024/01/26 01:01:23;;;;;;;8.10;1.80;;;;;;;3.64;95.22;100088.01;97312;1284;1002786;-30
2024/01/26 01:03:49;;;;;;;12.10;2.00;;;;;;;3.66;94.81;100080.95;103887;1282;60451;-32
2024/01/26 01:06:14;;;;;;;17.30;2.20;;;;;;;3.62;94.69;100082.02;103131;1286;1001986;-30
2024/01/26 01:08:40;;;;;;;14.30;1.80;;;;;;;3.62;94.85;100081.61;103873;1297;61283;-31
2024/01/26 01:11:06;;;;;;;8.70;1.70;;;;;;;3.63;95.12;100081.75;103944;1283;60468;-30
2024/01/26 01:13:31;;;;;;;10.90;1.50;;;;;;;3.63;95.52;100079.80;103947;1285;70225;-31
2024/01/26 01:16:00;;;;;;;14.90;2.10;;;;;;;3.60;96.06;100077.55;103813;1286;60570;-30
2024/01/26 01:18:26;;;;;;;7.50;1.40;;;;;;;3.58;96.14;100074.39;103776;1285;60449;-31
2024/01/26 01:20:52;;;;;;;;;;;;;;;3.61;96.13;100078.37;103914;1285;60461;-30
2024/01/26 01:23:18;;;;;;;14.00;1.50;;;;;;;3.59;96.11;100073.07;103882;1281;60890;-30
2024/01/26 01:25:43;;;;;;;12.20;1.80;;;;;;;3.57;96.56;100077.46;103844;1283;60469;-30
2024/01/26 01:28:09;;;;;;;12.40;1.50;;;;;;;3.58;96.65;100076.55;103749;1281;60584;-31
2024/01/26 01:30:35;;;;;;;15.40;2.20;;;;;;;3.57;96.57;100081.90;103820;1282;60568;-30
2024/01/26 01:33:00;;;;;;;12.80;1.70;;;;;;;3.61;96.60;100080.69;103825;1285;60672;-30
2024/01/26 01:35:26;;;;;;;10.80;1.60;;;;;;;3.62;96.49;100081.50;103916;1286;60568;-31
2024/01/26 01:37:52;;;;;;;12.20;1.80;;;;;;;3.58;96.87;100086.13;103873;1286;67810;-33
2024/01/26 01:40:17;;;;;;;23.40;2.40;;;;;;;3.55;96.56;100085.42;103745;1287;60582;-31
2024/01/26 01:42:43;;;;;;;9.50;1.90;;;;;;;3.56;96.62;100084.16;103798;1281;60578;-31
2024/01/26 01:45:13;;;;;;;8.30;1.80;;;;;;;3.59;96.38;100087.20;103801;1285;60620;-34
2024/01/26 01:47:39;;;;;;;7.00;1.70;;;;;;;3.60;96.12;100086.64;103997;1283;60418;-32
2024/01/26 01:50:06;;;;;;;7.60;1.60;;;;;;;3.71;95.32;100091.14;103988;1285;60533;-31
2024/01/26 02:33:03;;;;;;;12.80;1.70;;;;;;;3.18;100.00;100093.26;103483;1285;613401;-31
2024/01/26 02:35:29;;;;;;;11.80;1.00;;;;;;;3.36;100.00;100100.05;103538;1289;174930;-30
2024/01/26 02:37:55;;;;;;;12.90;1.70;;;;;;;3.41;100.00;100102.66;103866;1286;59896;-29
2024/01/26 02:40:20;;;;;;;19.00;2.30;;;;;;;3.44;99.89;100099.30;103847;1286;59341;-31
2024/01/26 02:42:46;;;;;;;7.90;1.40;;;;;;;3.46;99.86;100103.61;103975;1286;59268;-30
2024/01/26 02:45:12;;;;;;;18.20;1.70;;;;;;;3.51;99.74;100103.68;103842;1284;59250;-31
2024/01/26 02:47:38;;;;;;;14.10;1.40;;;;;;;3.48;99.59;100107.70;103786;1285;59465;-31
2024/01/26 02:50:05;;;;;;;20.40;1.60;;;;;;;3.50;99.47;100111.77;103775;1283;59243;-30
2024/01/26 02:52:31;;;;;;;14.80;1.30;;;;;;;3.47;99.52;100112.20;104151;1280;59188;-32
2024/01/26 02:54:57;;;;;;;11.10;1.60;;;;;;;3.49;99.70;100112.77;103881;1283;71908;-31
2024/01/26 02:57:23;;;;;;;10.30;1.40;;;;;;;3.50;99.39;100117.98;103833;1281;59673;-31
2024/01/26 02:59:49;;;;;;;6.50;1.00;;;;;;;3.55;99.19;100121.56;103865;1285;59761;-32
2024/01/26 03:02:14;;;;;;;;;;;;;;;3.52;98.96;100120.23;103731;1283;59711;-31
2024/01/26 03:04:40;;;;;;;13.20;1.60;;;;;;;3.46;99.24;100125.34;103793;1283;59756;-32
2024/01/26 03:07:05;;;;;;;7.20;1.00;;;;;;;3.40;99.71;100129.98;103857;1280;59793;-31
2024/01/26 03:09:31;;;;;;;13.40;1.00;;;;;;;3.35;100.00;100136.13;103906;1285;59753;-29
2024/01/26 03:11:56;;;;;;;11.30;1.60;;;;;;;3.32;99.93;100142.52;103833;1285;72124;-29
2024/01/26 03:14:22;;;;;;;7.90;1.00;;;;;;;3.32;99.98;100144.33;103935;1285;59700;-29
2024/01/26 03:16:47;;;;;;;9.40;1.10;;;;;;;3.19;100.00;100144.36;103065;1282;1003369;-29
2024/01/26 03:19:13;;;;;;;9.50;1.30;;;;;;;3.20;100.00;100150.08;103834;1283;59682;-33
2024/01/26 03:21:43;;;;;;;12.10;1.20;;;;;;;3.24;100.00;100151.72;103753;1283;59818;-30
2024/01/26 03:24:08;;;;;;;10.40;1.50;;;;;;;3.15;100.00;100149.29;103897;1285;68769;-30
2024/01/26 03:26:34;;;;;;;17.50;2.50;;;;;;;3.14;100.00;100151.85;103791;1286;59790;-32
2024/01/26 03:29:01;;;;;;;6.90;1.40;;;;;;;3.14;100.00;100148.27;103813;1283;59755;-31
2024/01/26 03:31:27;;;;;;;11.30;1.90;;;;;;;3.13;100.00;100151.57;103885;1286;59737;-30
2024/01/26 03:33:52;;;;;;;;;;;;;;;3.11;100.00;100154.77;103692;1281;59707;-33
2024/01/26 03:36:18;;;;;;;6.50;1.70;;;;;;;3.07;100.00;100157.77;103788;1285;59788;-33
2024/01/26 03:38:44;;;;;;;8.30;1.70;;;;;;;3.09;100.00;100158.70;103838;1283;60924;-32
2024/01/26 03:41:10;;;;;;;15.40;1.90;;;;;;;3.10;100.00;100159.12;104030;1286;59820;-33
2024/01/26 03:43:36;;;;;;;6.60;1.40;;;;;;;3.01;100.00;100157.86;103833;1285;60902;-33
2024/01/26 03:46:05;;;;;;;11.40;2.10;;;;;;;3.06;100.00;100159.07;103881;1285;59727;-34
2024/01/26 03:48:32;;;;;;;12.50;1.20;;;;;;;3.06;100.00;100160.52;103931;1284;73413;-33
2024/01/26 03:50:57;;;;;;;;;;;;;;;3.04;100.00;100154.30;103873;1283;59740;-33
2024/01/26 03:53:23;;;;;;;10.10;2.70;;;;;;;3.04;100.00;100153.93;103845;1283;59701;-33
2024/01/26 03:55:48;;;;;;;14.00;1.60;;;;;;;3.06;100.00;100154.30;94425;1285;2002643;-33
2024/01/26 03:58:14;;;;;;;14.80;3.20;;;;;;;3.08;100.00;100154.80;91570;1282;2002763;-31
2024/01/26 04:00:40;;;;;;;16.30;2.00;;;;;;;3.07;100.00;100152.81;100312;1283;1002799;-31
2024/01/26 04:03:06;;;;;;;12.20;1.60;;;;;;;3.09;100.00;100152.13;102524;1284;1015813;-33
2024/01/26 04:05:32;;;;;;;;;;;;;;;3.11;100.00;100146.13;104055;1283;59682;-31
2024/01/26 04:07:58;;;;;;;10.30;1.70;;;;;;;3.04;100.00;100148.23;104012;1283;59730;-33
2024/01/26 04:10:23;;;;;;;19.20;2.00;;;;;;;3.12;100.00;100142.96;103423;1285;1003016;-32
2024/01/26 04:12:49;;;;;;;11.70;1.70;;;;;;;3.13;100.00;100146.44;104041;1285;59672;-31
2024/01/26 04:15:15;;;;;;;10.80;1.60;;;;;;;3.15;100.00;100140.44;100479;1283;1017204;-33
2024/01/26 04:17:40;;;;;;;11.00;1.90;;;;;;;3.10;100.00;100142.98;103176;1286;1002027;-33
2024/01/26 04:20:07;;;;;;;14.10;1.50;;;;;;;3.07;100.00;100143.63;104013;1295;59746;-32
2024/01/26 04:22:32;;;;;;;15.30;1.30;;;;;;;3.02;100.00;100142.59;101124;1285;1002901;-31
2024/01/26 04:24:58;;;;;;;21.20;2.40;;;;;;;2.97;100.00;100144.41;101896;1284;1002494;-31
2024/01/26 04:27:24;;;;;;;12.40;1.80;;;;;;;2.95;100.00;100146.87;103873;1296;59777;-31
2024/01/26 04:29:49;;;;;;;19.70;1.50;;;;;;;2.95;100.00;100152.92;104034;1285;70650;-32
2024/01/26 04:32:15;;;;;;;11.40;1.50;;;;;;;2.95;100.00;100162.68;104025;1285;59758;-32
2024/01/26 04:34:40;;;;;;;12.60;1.70;;;;;;;2.93;100.00;100166.58;104029;1285;59775;-31
2024/01/26 04:37:07;;;;;;;10.30;1.20;;;;;;;2.90;100.00;100166.46;103864;1294;59764;-30
2024/01/26 04:39:33;;;;;;;12.00;1.50;;;;;;;2.88;100.00;100164.68;104030;1285;59780;-30
2024/01/26 04:41:59;;;;;;;;;;;;;;;2.90;100.00;100169.60;104161;1284;59656;-29
2024/01/26 04:44:24;;;;;;;10.90;1.60;;;;;;;2.89;100.00;100167.41;103982;1299;59759;-31
2024/01/26 04:46:53;;;;;;;8.30;1.70;;;;;;;2.88;100.00;100167.32;104025;1301;59703;-31
2024/01/26 04:49:18;;;;;;;12.40;1.70;;;;;;;2.90;100.00;100163.62;104132;1285;59715;-32
2024/01/26 04:51:44;;;;;;;16.90;2.30;;;;;;;2.91;100.00;100159.84;104082;1285;59669;-32
2024/01/26 04:54:10;;;;;;;;;;;;;;;2.89;100.00;100162.78;103969;1285;59655;-31
2024/01/26 04:56:35;;;;;;;8.30;1.20;;;;;;;2.87;100.00;100166.86;104059;1299;60178;-31
2024/01/26 04:59:02;;;;;;;18.30;2.40;;;;;;;2.90;100.00;100165.21;103975;1286;60176;-30
2024/01/26 05:01:28;;;;;;;12.20;2.00;;;;;;;2.95;100.00;100172.42;103965;1285;59796;-31
2024/01/26 05:03:54;;;;;;;13.10;2.20;;;;;;;2.92;100.00;100171.89;103973;1285;59768;-32
2024/01/26 05:06:19;;;;;;;11.40;1.30;;;;;;;2.92;100.00;100171.23;103861;1301;59740;-30
2024/01/26 05:08:46;;;;;;;17.70;2.70;;;;;;;2.93;100.00;100170.04;103953;1285;66589;-30
2024/01/26 05:11:12;;;;;;;10.30;2.10;;;;;;;2.93;100.00;100172.20;104132;1285;70332;-31
2024/01/26 05:13:37;;;;;;;19.00;1.90;;;;;;;2.91;100.00;100174.49;104026;1286;59748;-33
2024/01/26 05:16:03;;;;;;;9.40;1.40;;;;;;;2.93;100.00;100172.50;103998;1285;59694;-33
2024/01/26 05:18:29;;;;;;;12.40;1.80;;;;;;;2.96;100.00;100173.39;104100;1296;60049;-32
2024/01/26 05:20:55;;;;;;;10.80;2.00;;;;;;;2.96;100.00;100176.58;104004;1286;59792;-31
2024/01/26 05:23:20;;;;;;;9.20;2.00;;;;;;;3.08;100.00;100171.67;104003;1285;60304;-31
2024/01/26 05:25:47;;;;;;;14.10;2.20;;;;;;;3.04;100.00;100175.35;104026;1295;60357;-30
2024/01/26 05:28:13;;;;;;;11.40;1.70;;;;;;;3.02;100.00;100173.92;104084;1295;60609;-30
2024/01/26 05:30:38;;;;;;;12.70;1.60;;;;;;;3.02;100.00;100177.23;103897;1285;60809;-30
2024/01/26 05:33:05;;;;;;;16.80;2.30;;;;;;;3.00;100.00;100178.11;104098;1297;59907;-30
2024/01/26 05:35:31;;;;;;;14.10;2.50;;;;;;;2.99;100.00;100177.90;104018;1285;66947;-31
2024/01/26 05:37:56;;;;;;;13.80;2.10;;;;;;;2.97;100.00;100174.00;104034;1285;60706;-32
2024/01/26 05:40:22;;;;;;;14.50;2.10;;;;;;;2.94;100.00;100171.92;104065;1298;60308;-32
2024/01/26 05:42:47;;;;;;;10.00;1.80;;;;;;;2.89;100.00;100169.48;104056;1299;59803;-30
2024/01/26 05:45:15;;;;;;;12.60;2.60;;;;;;;2.84;100.00;100166.73;104008;1285;60336;-30
2024/01/26 05:47:41;;;;;;;16.80;2.40;;;;;;;2.78;100.00;100164.23;104012;1285;60790;-30
2024/01/26 05:50:07;;;;;;;8.50;2.30;;;;;;;2.74;100.00;100164.73;104091;1285;60638;-30
2024/01/26 05:52:33;;;;;;;13.00;2.70;;;;;;;2.77;100.00;100165.23;103981;1295;60887;-31
2024/01/26 05:54:58;;;;;;;8.70;2.20;;;;;;;2.85;100.00;100168.99;104077;1285;60843;-30
2024/01/26 05:57:24;;;;;;;17.00;2.50;;;;;;;2.88;100.00;100168.59;103905;1295;60843;-30
2024/01/26 05:59:50;;;;;;;21.50;3.60;;;;;;;2.94;100.00;100163.41;103798;1282;62415;-32
2024/01/26 06:02:16;;;;;;;19.70;4.20;;;;;;;2.95;100.00;100169.73;104126;1290;60898;-30
2024/01/26 06:04:42;;;;;;;17.60;3.70;;;;;;;2.98;100.00;100169.63;103910;1285;72674;-30
2024/01/26 06:07:07;;;;;;;;;;;;;;;2.90;100.00;100166.61;103989;1285;60904;-32
2024/01/26 06:09:33;;;;;;;22.50;5.40;;;;;;;2.87;100.00;100169.20;104031;1288;60849;-29
2024/01/26 06:11:58;;;;;;;21.90;5.30;;;;;;;2.91;100.00;100171.45;104105;1296;60898;-30
2024/01/26 06:14:24;;;;;;;13.50;4.10;;;;;;;2.94;100.00;100167.92;103962;1285;60853;-30
2024/01/26 06:16:50;;;;;;;;;;;;;;;2.93;100.00;100163.39;103993;1285;60306;-32
2024/01/26 06:19:15;;;;;;;14.50;2.70;;;;;;;2.94;100.00;100160.29;104022;1285;60450;-31
2024/01/26 06:21:41;;;;;;;13.30;2.50;;;;;;;2.94;100.00;100154.80;103993;1289;60908;-32
2024/01/26 06:24:07;;;;;;;19.30;3.20;;;;;;;3.02;100.00;100156.21;103964;1281;60553;-32
2024/01/26 06:26:32;;;;;;;15.60;2.70;;;;;;;2.98;100.00;100151.05;104025;1285;60878;-33
2024/01/26 06:28:59;;;;;;;18.10;3.10;;;;;;;2.98;100.00;100150.04;104043;1285;60793;-32
2024/01/26 06:31:26;;;;;;;14.50;2.10;;;;;;;3.04;100.00;100153.18;103980;1295;60801;-30
2024/01/26 06:33:51;;;;;;;7.90;1.90;;;;;;;3.10;100.00;100152.75;103987;1285;60821;-30
2024/01/26 06:36:17;;;;;;;18.10;3.50;;;;;;;3.14;100.00;100153.80;104060;1298;62050;-31
2024/01/26 06:38:43;;;;;;;24.50;7.90;;;;;;;3.11;100.00;100152.27;103843;1296;61619;-30
2024/01/26 06:41:08;;;;;;;25.40;9.20;;;;;;;3.09;100.00;100157.38;103989;1285;61653;-31
2024/01/26 06:43:34;;;;;;;15.00;4.10;;;;;;;3.07;100.00;100159.52;103960;1298;61723;-30
2024/01/26 06:46:00;;;;;;;13.00;3.10;;;;;;;3.06;100.00;100166.67;104079;1285;61678;-31
2024/01/26 06:48:26;;;;;;;16.80;4.90;;;;;;;3.05;100.00;100167.50;103952;1299;61592;-32
2024/01/26 06:50:52;;;;;;;15.90;2.90;;;;;;;2.96;100.00;100167.20;103940;1281;61590;-32
2024/01/26 06:53:18;;;;;;;15.50;4.30;;;;;;;2.86;100.00;100169.60;104062;1282;60759;-31
2024/01/26 06:55:45;;;;;;;;;;;;;;;2.80;100.00;100167.45;103907;1295;61480;-31
2024/01/26 06:58:11;;;;;;;19.70;5.40;;;;;;;2.79;100.00;100166.80;103948;1301;61535;-33
2024/01/26 07:00:36;;;;;;;;;;;;;;;2.73;100.00;100171.73;104024;1285;61481;-32
2024/01/26 07:03:02;;;;;;;16.30;3.50;;;;;;;2.81;100.00;100169.33;104044;1285;61589;-32
2024/01/26 07:05:28;;;;;;;20.10;7.00;;;;;;;2.80;100.00;100166.04;104058;1285;61721;-30
2024/01/26 07:07:57;;;;;;;20.80;6.60;;;;;;;2.78;100.00;100162.64;104195;1284;61710;-32
2024/01/26 07:10:23;;;;;;;13.20;5.00;;;;;;;2.73;100.00;100165.02;104006;1285;68986;-31
2024/01/26 07:12:49;;;;;;;;;;;;;;;2.78;100.00;100164.79;103990;1285;62411;-32
2024/01/26 07:15:14;;;;;;;17.00;5.10;;;;;;;2.74;100.00;100170.77;104072;1299;61727;-31
2024/01/26 07:17:40;;;;;;;25.80;5.60;;;;;;;2.86;100.00;100169.09;103971;1285;61630;-32
2024/01/26 07:20:06;;;;;;;30.10;9.00;;;;;;;2.92;100.00;100177.10;103983;1296;61714;-31
2024/01/26 07:22:32;;;;;;;111.30;52.20;;;;;;;2.91;100.00;100179.96;103657;1288;61710;-32
2024/01/26 07:24:57;;;;;;;63.60;30.00;;;;;;;2.95;100.00;100180.70;104022;1288;61727;-32
2024/01/26 07:27:23;;;;;;;56.10;22.70;;;;;;;3.03;100.00;100183.57;103981;1301;61676;-32
2024/01/26 07:29:49;;;;;;;70.90;16.40;;;;;;;3.03;100.00;100183.69;104001;1285;61618;-30
2024/01/26 07:32:14;;;;;;;92.60;20.20;;;;;;;3.14;100.00;100187.05;103959;1285;61650;-32
2024/01/26 07:34:40;;;;;;;119.00;39.30;;;;;;;3.19;100.00;100187.11;104048;1284;61669;-29
2024/01/26 07:37:06;;;;;;;79.60;40.80;;;;;;;3.16;100.00;100182.83;103975;1284;61688;-32
2024/01/26 07:39:31;;;;;;;85.90;41.00;;;;;;;3.24;100.00;100183.35;103937;1285;61724;-33
2024/01/26 07:41:57;;;;;;;89.40;42.40;;;;;;;3.26;100.00;100181.44;104147;1296;61705;-31
2024/01/26 07:44:22;;;;;;;59.30;17.40;;;;;;;3.35;100.00;100191.66;104002;1296;61659;-30
2024/01/26 07:46:48;;;;;;;29.50;8.70;;;;;;;3.42;100.00;100191.20;103971;1282;73046;-32
2024/01/26 07:49:13;;;;;;;38.30;16.80;;;;;;;3.48;100.00;100189.46;104077;1285;61617;-31
2024/01/26 07:51:39;;;;;;;26.30;7.10;;;;;;;3.41;100.00;100187.97;104022;1284;61701;-29
2024/01/26 07:54:06;;;;;;;34.60;9.00;;;;;;;3.32;100.00;100191.89;103879;1288;61586;-31
2024/01/26 07:56:32;;;;;;;59.30;16.30;;;;;;;3.36;100.00;100196.55;103941;1285;61621;-31
2024/01/26 07:58:57;;;;;;;98.30;23.00;;;;;;;3.46;100.00;100200.09;104012;1288;61713;-29
2024/01/26 08:01:23;;;;;;;42.20;11.20;;;;;;;3.47;100.00;100202.30;103956;1295;61684;-30
2024/01/26 08:03:49;;;;;;;;;;;;;;;3.48;100.00;100197.05;104010;1285;61694;-34
2024/01/26 08:06:14;;;;;;;18.00;4.70;;;;;;;3.41;100.00;100201.41;103980;1294;61612;-33
2024/01/26 08:08:40;;;;;;;20.40;3.60;;;;;;;3.45;100.00;100198.88;103911;1282;61627;-33
2024/01/26 08:11:05;;;;;;;16.10;3.20;;;;;;;3.48;100.00;100197.95;104034;1285;61628;-32
2024/01/26 08:13:31;;;;;;;19.10;4.80;;;;;;;3.50;100.00;100193.22;104027;1291;60741;-33
2024/01/26 08:15:56;;;;;;;15.90;3.50;;;;;;;3.53;100.00;100185.16;103958;1292;60773;-33
2024/01/26 08:18:22;;;;;;;21.70;4.20;;;;;;;3.63;100.00;100181.77;104058;1285;61671;-34
2024/01/26 08:20:49;;;;;;;;;;;;;;;3.65;100.00;100180.58;103973;1295;62159;-33
2024/01/26 08:23:14;;;;;;;29.20;12.00;;;;;;;3.73;100.00;100180.56;103942;1285;63247;-31
2024/01/26 08:25:40;;;;;;;22.00;4.60;;;;;;;3.81;100.00;100174.05;104142;1285;61704;-33
2024/01/26 08:28:06;;;;;;;9.10;3.40;;;;;;;3.84;100.00;100168.63;104149;1291;61695;-33
2024/01/26 08:30:33;;;;;;;19.40;4.60;;;;;;;3.85;100.00;100172.83;103931;1285;72406;-33
2024/01/26 08:32:59;;;;;;;29.10;6.20;;;;;;;3.96;100.00;100174.32;104035;1283;61583;-33
2024/01/26 08:35:24;;;;;;;35.90;7.20;;;;;;;4.06;100.00;100171.35;104009;1285;61695;-32
2024/01/26 08:37:50;;;;;;;49.80;12.10;;;;;;;4.02;100.00;100168.14;104048;1285;61652;-31
2024/01/26 08:40:16;;;;;;;72.90;15.70;;;;;;;4.02;100.00;100163.48;104005;1292;61768;-31
2024/01/26 08:42:44;;;;;;;40.40;10.90;;;;;;;4.09;100.00;100160.29;104002;1282;62372;-33
2024/01/26 08:45:10;;;;;;;39.70;8.70;;;;;;;4.15;100.00;100155.77;103801;1285;61631;-33
2024/01/26 08:47:36;;;;;;;46.20;13.50;;;;;;;4.38;100.00;100157.25;103984;1295;61680;-32
2024/01/26 08:50:01;;;;;;;;;;;;;;;4.30;100.00;100162.56;103895;1285;61653;-32
2024/01/26 08:52:27;;;;;;;19.10;3.40;;;;;;;4.24;100.00;100156.04;103951;1294;61621;-32
2024/01/26 08:54:53;;;;;;;17.60;4.00;;;;;;;4.26;100.00;100158.23;103987;1282;61612;-32
2024/01/26 08:57:19;;;;;;;15.70;3.20;;;;;;;4.32;100.00;100158.91;104032;1289;61701;-29
2024/01/26 08:59:44;;;;;;;11.20;2.30;;;;;;;4.40;100.00;100161.89;104041;1301;61695;-31
2024/01/26 09:02:11;;;;;;;18.10;3.00;;;;;;;4.38;100.00;100160.14;103966;1280;61698;-29
2024/01/26 09:04:37;;;;;;;;;;;;;;;4.47;100.00;100162.91;104097;1285;61602;-31
2024/01/26 09:07:03;;;;;;;11.60;2.80;;;;;;;4.57;100.00;100165.88;103988;1285;61768;-33
2024/01/26 09:09:29;;;;;;;20.50;4.80;;;;;;;4.70;99.88;100159.52;104022;1282;61481;-31
2024/01/26 09:11:55;;;;;;;15.60;3.20;;;;;;;4.66;99.99;100156.89;104011;1285;61647;-30
2024/01/26 09:14:21;;;;;;;13.00;2.70;;;;;;;4.72;99.19;100154.20;104018;1285;61626;-31
2024/01/26 09:16:53;;;;;;;13.90;4.10;;;;;;;4.79;97.91;100155.38;103948;1285;61700;-31
2024/01/26 09:19:19;;;;;;;14.90;2.30;;;;;;;4.85;96.50;100151.05;103882;1283;61541;-32
2024/01/26 09:21:45;;;;;;;12.10;3.70;;;;;;;4.94;94.69;100148.05;103964;1285;61681;-32
2024/01/26 09:24:11;;;;;;;13.90;2.70;;;;;;;4.83;94.42;100148.56;103947;1285;61787;-32
2024/01/26 09:26:39;;;;;;;20.90;4.40;;;;;;;4.83;91.71;100149.96;104079;1285;61612;-31
2024/01/26 09:29:06;;;;;;;14.50;3.60;;;;;;;5.00;92.07;100147.52;103981;1282;61705;-30
2024/01/26 09:31:32;;;;;;;13.50;2.50;;;;;;;5.46;91.71;100139.86;103984;1282;61774;-34
2024/01/26 09:33:57;;;;;;;6.80;1.60;;;;;;;5.58;90.13;100142.27;104130;1285;61670;-32
2024/01/26 09:36:23;;;;;;;8.30;1.50;;;;;;;5.93;87.79;100142.81;103921;1299;61693;-33
2024/01/26 09:38:49;;;;;;;5.60;0.90;;;;;;;6.13;83.47;100138.90;103893;1284;61627;-31
2024/01/26 09:41:15;;;;;;;;;;;;;;;6.12;80.73;100138.76;103991;1285;61708;-33
2024/01/26 09:43:41;;;;;;;8.00;1.20;;;;;;;6.41;82.51;100136.89;103924;1285;61755;-31
2024/01/26 09:46:06;;;;;;;6.50;0.90;;;;;;;6.67;80.61;100132.25;103989;1301;61706;-31
2024/01/26 09:48:35;;;;;;;3.10;0.90;;;;;;;6.98;78.52;100136.40;104039;1285;61710;-33
2024/01/26 09:51:01;;;;;;;4.90;1.10;;;;;;;6.83;76.58;100132.23;103986;1282;68062;-32
2024/01/26 09:53:26;;;;;;;9.80;2.80;;;;;;;6.67;76.28;100131.86;103902;1282;61742;-32
2024/01/26 09:55:52;;;;;;;9.50;1.40;;;;;;;6.33;78.12;100130.37;103827;1296;61720;-31
2024/01/26 09:58:18;;;;;;;9.70;1.20;;;;;;;6.12;78.61;100123.08;103937;1285;61806;-32
2024/01/26 10:00:46;;;;;;;8.40;1.90;;;;;;;6.18;79.23;100119.81;104054;1292;61717;-32
2024/01/26 10:03:12;;;;;;;8.30;2.90;;;;;;;5.92;79.52;100118.01;104101;1282;73890;-32
2024/01/26 10:05:38;;;;;;;22.20;5.90;;;;;;;6.05;80.16;100110.20;103938;1282;61711;-30
2024/01/26 10:08:08;;;;;;;8.40;2.40;;;;;;;6.22;78.68;100106.39;103926;1298;61699;-33
2024/01/26 10:10:34;;;;;;;7.00;1.70;;;;;;;6.07;79.93;100096.83;103948;1285;61723;-31
2024/01/26 10:13:00;;;;;;;;;;;;;;;6.03;80.36;100092.08;103902;1282;61698;-32
2024/01/26 10:15:26;;;;;;;8.30;2.10;;;;;;;6.30;80.11;100085.48;103959;1285;61631;-34
2024/01/26 10:17:55;;;;;;;11.50;1.70;;;;;;;6.82;78.31;100078.35;104084;1288;61712;-31
2024/01/26 10:20:21;;;;;;;15.00;3.20;;;;;;;7.03;77.12;100074.45;103925;1282;68169;-30
2024/01/26 10:22:47;;;;;;;;;;;;;;;6.80;78.71;100070.96;104010;1285;61637;-32
2024/01/26 10:25:13;;;;;;;5.30;1.90;;;;;;;6.79;76.38;100070.31;103910;1285;63224;-32
2024/01/26 10:27:39;;;;;;;9.90;1.10;;;;;;;6.43;78.27;100066.77;103968;1299;62361;-31
2024/01/26 10:30:06;;;;;;;9.90;1.60;;;;;;;6.57;78.27;100063.75;103936;1285;61715;-32
2024/01/26 10:32:32;;;;;;;5.20;1.30;;;;;;;6.66;76.20;100062.55;104033;1285;61702;-33
2024/01/26 10:34:59;;;;;;;7.70;2.10;;;;;;;6.31;77.46;100064.42;103974;1285;61698;-32
2024/01/26 10:37:29;;;;;;;8.70;1.70;;;;;;;6.39;78.63;100064.33;103954;1282;61681;-33
2024/01/26 10:39:56;;;;;;;10.00;1.60;;;;;;;6.42;79.00;100062.63;104042;1282;62235;-33
2024/01/26 10:42:22;;;;;;;8.30;1.80;;;;;;;6.47;79.58;100059.50;103924;1282;61708;-33
2024/01/26 10:44:49;;;;;;;9.50;1.50;;;;;;;6.64;77.83;100064.87;104064;1282;61574;-33
2024/01/26 10:47:16;;;;;;;12.10;2.50;;;;;;;6.41;76.53;100050.41;103913;1283;74051;-34
2024/01/26 10:49:42;;;;;;;14.00;5.30;;;;;;;6.41;77.56;100037.27;104081;1282;67748;-31
2024/01/26 10:52:08;;;;;;;;;;;;;;;6.40;79.52;100041.10;103981;1285;61596;-31
2024/01/26 10:54:33;;;;;;;11.10;1.90;;;;;;;6.66;77.15;100032.80;103947;1285;62047;-33
2024/01/26 10:56:59;;;;;;;8.80;2.80;;;;;;;6.51;77.21;100028.45;103981;1285;61807;-32
2024/01/26 10:59:25;;;;;;;13.90;3.60;;;;;;;6.22;78.58;100031.17;103999;1298;61714;-33
2024/01/26 11:01:51;;;;;;;13.80;3.00;;;;;;;6.13;79.87;100037.65;103953;1282;61723;-33
2024/01/26 11:04:17;;;;;;;10.10;1.70;;;;;;;6.15;80.52;100032.30;104038;1297;61787;-33
2024/01/26 11:06:43;;;;;;;;;;;;;;;6.25;80.77;100030.73;103944;1285;61701;-31
2024/01/26 11:09:11;;;;;;;20.50;5.80;;;;;;;6.18;79.98;100039.92;104021;1281;61583;-31
2024/01/26 11:11:38;;;;;;;40.00;11.90;;;;;;;6.16;80.17;100035.18;103884;1285;61624;-31
2024/01/26 11:14:05;;;;;;;35.20;7.90;;;;;;;6.21;81.22;100033.09;104022;1298;61653;-31
2024/01/26 11:16:32;;;;;;;41.90;11.10;;;;;;;6.29;80.75;100026.42;104064;1285;61633;-33
2024/01/26 11:18:58;;;;;;;50.20;13.30;;;;;;;6.16;80.68;100016.38;104068;1284;69635;-32
2024/01/26 11:21:24;;;;;;;31.70;11.40;;;;;;;6.07;80.33;100013.66;104033;1285;62130;-33
2024/01/26 11:23:49;;;;;;;19.60;8.40;;;;;;;6.47;78.64;100010.66;103997;1294;61723;-32
2024/01/26 11:26:15;;;;;;;20.50;6.20;;;;;;;6.42;77.97;100007.46;104004;1285;61718;-33
2024/01/26 11:28:41;;;;;;;;;;;;;;;6.39;79.01;99998.94;104046;1285;61615;-32
2024/01/26 11:31:07;;;;;;;14.30;2.90;;;;;;;6.48;79.50;99986.43;103971;1297;62210;-31
2024/01/26 11:33:37;;;;;;;;;;;;;;;6.37;79.76;99985.08;103911;1282;61614;-31
2024/01/26 11:36:04;;;;;;;15.30;3.10;;;;;;;6.69;79.28;99978.45;103859;1285;72757;-33
2024/01/26 11:38:31;;;;;;;15.60;3.50;;;;;;;6.71;78.85;99979.60;103994;1282;61701;-32
2024/01/26 11:41:00;;;;;;;10.80;2.50;;;;;;;6.80;78.94;99971.92;103996;1283;61702;-32
2024/01/26 11:43:26;;;;;;;13.00;2.10;;;;;;;6.97;78.41;99966.77;104024;1280;61563;-32
2024/01/26 11:45:52;;;;;;;14.50;2.70;;;;;;;7.13;77.62;99961.20;103990;1284;61544;-32
2024/01/26 11:48:18;;;;;;;10.90;2.00;;;;;;;7.05;77.75;99962.25;103998;1296;61657;-32
2024/01/26 11:50:45;;;;;;;13.00;2.30;;;;;;;7.05;77.75;99957.23;103915;1301;61695;-34
2024/01/26 11:53:16;;;;;;;12.80;2.20;;;;;;;7.50;78.33;99954.78;104029;1281;61574;-29